Time;durP1;ratioP1;P1;durP2;ratioP2;P2;SDS_P1;SDS_P2;PMS_P1;PMS_P2;Temp;Humidity;BMP_temperature;BMP_pressure;BME280_temperature;BME280_humidity;BME280_pressure;Samples;Min_cycle;Max_cycle;Signal;HPM_P1;HPM_P2
2021/01/29 00:01:51;;;;;;;;;;;8.00;99.90;;;6.81;89.98;94586.50;10370932;28;2195;-86
2021/01/29 00:06:54;;;;;;;;;;;8.00;99.90;;;6.69;89.98;94588.72;10370130;28;2168;-87
2021/01/29 00:11:56;;;;;;;;;;;7.90;99.90;;;6.68;90.33;94574.56;10385769;28;2237;-86
2021/01/29 00:16:58;;;;;;;;;;;7.80;99.90;;;6.68;90.07;94573.75;10415525;28;2408;-89
2021/01/29 00:22:03;;;;;;;;;;;7.80;99.90;;;6.77;89.95;94570.22;10390980;28;2197;-86
2021/01/29 00:27:05;;;;;;;;;;;7.80;99.90;;;6.82;89.64;94576.59;10380732;28;2067;-88
2021/01/29 00:32:07;;;;;;;;;;;8.10;99.90;;;6.85;89.72;94574.16;10372337;28;2226;-84
2021/01/29 00:37:09;;;;;;;;;;;7.90;99.90;;;6.82;89.04;94563.25;10365692;28;2223;-83
2021/01/29 00:42:11;;;;;;;;;;;7.90;99.90;;;6.75;89.68;94563.56;10361936;28;1968;-86
2021/01/29 00:47:13;;;;;;;;;;;7.90;99.90;;;6.72;90.21;94564.91;10375885;28;1858;-89
2021/01/29 00:52:15;;;;;;;;;;;7.80;99.90;;;6.81;89.34;94557.13;10398117;28;2292;-89
2021/01/29 00:57:17;;;;;;;;;;;7.90;99.90;;;6.78;89.36;94563.00;10366886;28;1769;-86
2021/01/29 01:02:19;;;;;;;;;;;7.90;99.90;;;6.65;89.57;94561.75;10365293;28;2115;-87
2021/01/29 01:07:21;;;;;;;;;;;7.90;99.90;;;6.53;90.35;94555.97;10366981;28;1876;-87
2021/01/29 01:12:23;;;;;;;;;;;7.70;99.90;;;6.49;90.03;94554.94;10368115;28;1573;-88
2021/01/29 01:17:25;;;;;;;;;;;7.60;99.90;;;6.42;90.36;94549.09;10382600;28;2210;-86
2021/01/29 01:22:27;;;;;;;;;;;7.60;99.90;;;6.46;90.08;94553.59;10363885;28;2300;-88
2021/01/29 01:27:29;;;;;;;;;;;7.60;99.90;;;6.56;89.59;94542.06;10358456;28;1983;-87
2021/01/29 01:32:30;;;;;;;;;;;7.60;99.90;;;6.62;89.54;94537.50;10378406;28;2361;-89
2021/01/29 01:37:32;;;;;;;;;;;7.70;99.90;;;6.65;89.32;94527.03;10397031;28;1909;-88
2021/01/29 01:42:34;;;;;;;;;;;7.70;99.90;;;6.67;90.19;94518.75;10382850;28;2053;-87
2021/01/29 01:47:36;;;;;;;;;;;7.80;99.90;;;6.74;89.32;94509.38;10396887;28;2238;-89
2021/01/29 01:52:38;;;;;;;;;;;7.80;99.90;;;6.77;89.67;94508.00;10395251;28;2244;-87
2021/01/29 01:57:40;;;;;;;;;;;7.90;99.90;;;6.78;89.37;94478.31;10385115;28;2297;-88
2021/01/29 02:02:42;;;;;;;;;;;7.90;99.90;;;6.76;89.67;94456.47;10364962;28;2195;-87
2021/01/29 02:07:44;;;;;;;;;;;7.90;99.90;;;6.74;89.71;94449.78;10379481;28;1847;-87
2021/01/29 02:12:47;;;;;;;;;;;7.90;99.90;;;6.72;89.33;94436.72;10374302;28;2249;-87
2021/01/29 02:17:49;;;;;;;;;;;7.80;99.90;;;6.78;89.72;94419.56;10366620;28;2552;-88
2021/01/29 02:22:51;;;;;;;;;;;7.80;99.90;;;6.72;90.16;94433.25;10372715;28;2145;-86
2021/01/29 02:27:53;;;;;;;;;;;7.90;99.90;;;6.74;90.16;94431.09;10389191;28;2207;-89
2021/01/29 02:32:55;;;;;;;;;;;7.80;99.90;;;6.78;89.99;94427.59;10393864;28;2496;-88
2021/01/29 02:37:57;;;;;;;;;;;7.90;99.90;;;6.75;89.94;94419.34;10390992;28;2463;-87
2021/01/29 02:42:59;;;;;;;;;;;7.90;99.90;;;6.73;90.09;94408.13;10404017;28;2386;-87
2021/01/29 02:48:04;;;;;;;;;;;7.80;99.90;;;6.76;89.36;94394.25;10396262;28;2314;-88
2021/01/29 02:53:06;;;;;;;;;;;7.80;99.90;;;6.80;89.52;94391.78;10407605;28;2272;-90
2021/01/29 02:58:08;;;;;;;;;;;7.90;99.90;;;6.82;89.91;94389.63;10408006;28;2437;-86
2021/01/29 03:03:10;;;;;;;;;;;7.90;99.90;;;6.75;90.99;94376.63;10393126;28;2512;-86
2021/01/29 03:08:12;;;;;;;;;;;8.30;99.90;;;6.72;92.41;94374.50;10401817;28;2390;-86
2021/01/29 03:13:14;;;;;;;;;;;7.80;99.90;;;6.70;92.60;94369.47;10400268;28;2462;-90
2021/01/29 03:18:16;;;;;;;;;;;7.80;99.90;;;6.68;92.63;94366.28;10409555;28;2219;-88
2021/01/29 03:23:18;;;;;;;;;;;7.80;99.90;;;6.64;93.88;94353.78;10386072;28;2148;-86
2021/01/29 03:28:21;;;;;;;;;;;7.80;99.90;;;6.64;93.43;94337.75;10384464;28;2504;-87
2021/01/29 03:33:22;;;;;;;;;;;7.80;99.90;;;6.59;94.60;94333.25;10381498;28;2688;-86
2021/01/29 03:38:24;;;;;;;;;;;8.30;99.90;;;6.56;94.22;94333.03;10390916;28;2429;-88
2021/01/29 03:43:26;;;;;;;;;;;7.70;99.90;;;6.53;95.20;94322.91;10411334;28;2500;-86
2021/01/29 03:48:28;;;;;;;;;;;7.60;99.90;;;6.64;95.24;94321.72;10393170;28;2097;-86
2021/01/29 03:53:30;;;;;;;;;;;7.60;99.90;;;6.67;94.97;94311.25;10413163;28;2521;-84
2021/01/29 03:58:32;;;;;;;;;;;7.80;99.90;;;6.67;95.44;94310.47;10410015;28;2444;-86
2021/01/29 04:03:34;;;;;;;;;;;7.80;99.90;;;6.68;96.19;94296.84;10410567;28;2648;-86
2021/01/29 04:08:36;;;;;;;;;;;8.20;99.90;;;6.67;96.18;94289.91;10406507;28;2497;-86
2021/01/29 04:13:38;;;;;;;;;;;7.80;99.90;;;6.65;96.68;94284.06;10364382;28;2454;-88
2021/01/29 04:18:40;;;;;;;;;;;8.30;99.90;;;6.63;95.88;94277.41;10374472;28;2496;-86
2021/01/29 04:23:42;;;;;;;;;;;7.70;99.90;;;6.56;96.86;94260.97;10381928;28;2103;-86
2021/01/29 04:28:44;;;;;;;;;;;7.70;99.90;;;6.56;96.96;94258.28;10356861;28;2086;-86
2021/01/29 04:33:47;;;;;;;;;;;7.60;99.90;;;6.56;95.89;94250.28;10359927;28;2473;-86
2021/01/29 04:38:50;;;;;;;;;;;7.60;99.90;;;6.56;96.31;94244.94;10355997;28;1955;-86
2021/01/29 04:43:52;;;;;;;;;;;7.60;99.90;;;6.59;94.83;94233.69;10378546;28;2086;-86
2021/01/29 04:48:54;;;;;;;;;;;7.60;99.90;;;6.57;94.20;94230.50;10357937;28;2184;-86
2021/01/29 04:53:56;;;;;;;;;;;7.60;99.90;;;6.61;92.95;94234.97;10376884;28;2417;-86
2021/01/29 04:58:57;;;;;;;;;;;7.60;99.90;;;6.58;92.05;94240.88;10380031;28;2477;-87
2021/01/29 05:03:59;;;;;;;;;;;7.60;99.90;;;6.51;91.62;94237.78;10364942;28;2464;-87
2021/01/29 05:09:05;;;;;;;;;;;7.60;99.90;;;6.47;91.86;94226.06;10401555;28;2187;-86
2021/01/29 05:14:07;;;;;;;;;;;8.60;99.90;;;6.36;91.30;94220.06;10365511;28;2126;-86
2021/01/29 05:19:09;;;;;;;;;;;7.50;99.90;;;6.29;90.76;94213.47;10365138;28;2071;-86
2021/01/29 05:24:10;;;;;;;;;;;8.20;99.90;;;6.19;91.00;94215.19;10366495;28;2129;-85
2021/01/29 05:29:12;;;;;;;;;;;6.90;99.90;;;6.07;92.36;94211.31;10429487;28;2394;-87
2021/01/29 05:34:14;;;;;;;;;;;8.00;99.90;;;6.00;92.20;94192.97;10406457;28;2476;-87
2021/01/29 05:39:16;;;;;;;;;;;7.10;99.90;;;5.95;93.17;94182.38;10393218;28;2437;-87
2021/01/29 05:44:18;;;;;;;;;;;8.10;99.90;;;5.91;92.74;94187.44;10375904;28;2434;-85
2021/01/29 05:49:20;;;;;;;;;;;7.00;99.90;;;5.87;93.11;94159.75;10386268;28;2394;-86
2021/01/29 05:54:22;;;;;;;;;;;7.40;99.90;;;5.84;93.24;94160.31;10375361;28;2425;-86
2021/01/29 05:59:24;;;;;;;;;;;5.60;99.90;;;5.80;92.97;94132.63;10401425;28;2287;-85
2021/01/29 06:04:26;;;;;;;;;;;6.90;99.90;;;5.75;93.97;94134.56;10405828;28;2519;-88
2021/01/29 06:09:28;;;;;;;;;;;6.80;99.90;;;5.72;93.65;94130.56;10395685;28;2429;-85
2021/01/29 06:14:30;;;;;;;;;;;6.80;99.90;;;5.68;94.42;94114.34;10362009;28;2507;-86
2021/01/29 06:19:32;;;;;;;;;;;7.00;99.90;;;5.67;94.40;94096.00;10381456;28;2379;-87
2021/01/29 06:24:33;;;;;;;;;;;6.70;99.90;;;5.65;94.87;94082.13;10382974;28;2393;-87
2021/01/29 06:29:35;;;;;;;;;;;6.70;99.90;;;5.65;94.72;94066.91;10368241;28;1915;-87
2021/01/29 06:34:37;;;;;;;;;;;6.70;99.90;;;5.66;95.40;94062.38;10364277;28;2440;-87
2021/01/29 06:39:39;;;;;;;;;;;8.30;99.90;;;5.69;95.19;94051.16;10365654;28;2456;-87
2021/01/29 06:44:55;;;;;;;;;;;7.20;99.90;;;5.95;93.41;94046.34;10371594;28;2426;-83
2021/01/29 06:49:57;;;;;;;;;;;6.90;99.90;;;6.13;92.69;94034.91;10379263;28;2549;-83
2021/01/29 06:54:59;;;;;;;;;;;7.10;99.90;;;5.79;93.08;94027.06;10366809;28;2430;-83
2021/01/29 07:00:04;;;;;;;;;;;7.00;99.90;;;5.65;93.30;94024.28;10355004;28;2510;-83
2021/01/29 07:05:07;;;;;;;;;;;6.80;99.90;;;5.61;92.82;94033.16;10384863;28;2622;-81
2021/01/29 07:10:09;;;;;;;;;;;6.70;99.90;;;5.63;92.78;94036.31;10393265;28;2075;-81
2021/01/29 07:15:11;;;;;;;;;;;6.70;99.90;;;5.65;92.19;94039.47;10402977;28;2310;-81
2021/01/29 07:20:13;;;;;;;;;;;6.90;99.90;;;5.77;91.61;94029.19;10369001;28;2443;-81
2021/01/29 07:25:16;;;;;;;;;;;6.80;99.90;;;5.86;91.23;94024.84;10380580;28;2575;-80
2021/01/29 07:30:17;;;;;;;;;;;5.40;99.90;;;6.01;90.53;94007.84;10381304;28;2446;-80
2021/01/29 07:35:19;;;;;;;;;;;7.00;99.90;;;6.15;90.37;94021.28;10362697;28;2458;-84
2021/01/29 07:40:21;;;;;;;;;;;7.10;99.90;;;6.27;90.15;94008.28;10391124;23;2405;-83
2021/01/29 07:45:26;;;;;;;;;;;7.20;99.90;;;6.46;89.29;93990.38;10473222;28;2519;-84
2021/01/29 07:50:34;;;;;;;;;;;7.40;99.90;;;6.64;89.39;93996.00;10464208;28;2541;-83
2021/01/29 07:55:47;;;;;;;;;;;8.60;99.90;;;6.75;89.25;93994.75;10498571;28;2416;-83
2021/01/29 08:01:11;;;;;;;;;;;7.80;99.90;;;6.87;88.44;93995.06;10463600;28;2173;-83
2021/01/29 08:06:26;;;;;;;;;;;;;;;;;;;;;
2021/01/29 08:12:10;;;;;;;;;;;8.10;99.90;;;7.27;87.30;94019.47;10466127;28;2573;-83
2021/01/29 08:17:18;;;;;;;;;;;8.30;99.90;;;7.30;87.52;94033.03;10478826;28;2229;-82
2021/01/29 08:22:20;;;;;;;;;;;8.30;99.90;;;7.36;88.00;94028.38;10447055;28;2359;-83
2021/01/29 08:27:23;;;;;;;;;;;8.40;99.90;;;7.54;86.38;94006.13;10477714;28;2405;-83
2021/01/29 08:32:28;;;;;;;;;;;10.20;99.90;;;7.66;85.01;94031.59;10456702;28;2696;-84
2021/01/29 08:37:33;;;;;;;;;;;8.60;99.90;;;7.78;83.40;94013.16;10454111;28;2290;-85
2021/01/29 08:42:35;;;;;;;;;;;9.90;99.90;;;7.75;82.99;94025.22;10449215;28;2239;-85
2021/01/29 08:47:37;;;;;;;;;;;10.10;99.90;;;7.76;82.01;94042.06;10465638;28;2275;-83
2021/01/29 08:52:38;;;;;;;;;;;8.80;99.90;;;7.75;79.25;94043.16;10475479;28;2294;-84
2021/01/29 08:57:40;;;;;;;;;;;8.80;99.90;;;7.65;79.00;94057.53;10493733;28;2294;-84
2021/01/29 09:02:42;;;;;;;;;;;8.80;99.90;;;7.62;78.82;94046.63;10469379;28;2833;-82
2021/01/29 09:07:44;;;;;;;;;;;8.70;99.90;;;7.57;80.93;94060.88;10487846;28;2239;-84
2021/01/29 09:12:46;;;;;;;;;;;8.70;99.90;;;7.54;79.88;94078.31;10477290;28;2161;-85
2021/01/29 09:17:48;;;;;;;;;;;8.60;99.90;;;7.48;81.61;94090.19;10449342;28;2156;-83
2021/01/29 09:22:50;;;;;;;;;;;8.60;99.90;;;7.56;80.40;94107.44;10471495;28;2488;-85
2021/01/29 09:27:52;;;;;;;;;;;8.60;99.90;;;7.54;81.30;94097.03;10465912;28;2183;-83
2021/01/29 09:32:54;;;;;;;;;;;8.60;99.90;;;7.58;81.98;94108.75;10474094;28;2243;-83
2021/01/29 09:37:56;;;;;;;;;;;8.70;99.90;;;7.59;80.99;94091.59;10479234;28;2449;-82
2021/01/29 09:42:58;;;;;;;;;;;9.10;99.90;;;7.61;80.82;94106.56;10442767;28;2365;-84
2021/01/29 09:48:00;;;;;;;;;;;8.80;99.90;;;7.84;80.14;94113.63;10476745;28;2613;-83
2021/01/29 09:53:05;;;;;;;;;;;8.80;99.90;;;8.23;78.44;94115.00;10450010;28;2208;-82
2021/01/29 09:58:07;;;;;;;;;;;9.30;99.90;;;8.43;78.52;94108.47;10458383;28;2281;-85
2021/01/29 10:03:17;;;;;;;;;;;9.40;99.90;;;8.74;75.80;94097.88;10478589;28;2421;-83
2021/01/29 10:08:19;;;;;;;;;;;9.80;99.90;;;8.72;76.53;94116.16;10491643;28;2262;-84
2021/01/29 10:13:21;;;;;;;;;;;10.60;99.90;;;8.69;75.66;94101.44;10470158;28;2294;-81
2021/01/29 10:18:24;;;;;;;;;;;9.80;99.90;;;8.70;75.64;94121.00;10463432;28;2350;-82
2021/01/29 10:23:26;;;;;;;;;;;9.80;99.90;;;8.43;76.49;94113.81;10472305;28;2262;-82
2021/01/29 10:28:29;;;;;;;;;;;9.60;99.90;;;8.49;75.88;94124.13;10477146;28;2283;-82
2021/01/29 10:33:31;;;;;;;;;;;9.60;99.90;;;8.65;76.00;94112.00;10468400;28;2597;-82
2021/01/29 10:38:33;;;;;;;;;;;9.70;99.90;;;8.68;75.38;94121.31;10452964;28;2172;-84
2021/01/29 10:43:35;;;;;;;;;;;9.80;99.90;;;8.66;75.61;94116.25;10441058;28;2246;-82
2021/01/29 10:48:38;;;;;;;;;;;10.30;99.90;;;8.68;76.45;94126.66;10450328;28;2839;-83
2021/01/29 10:53:39;;;;;;;;;;;9.80;99.90;;;8.81;75.16;94107.06;10478092;28;2350;-83
2021/01/29 10:58:41;;;;;;;;;;;9.80;99.90;;;8.92;74.90;94113.00;10474888;28;1993;-83
2021/01/29 11:03:43;;;;;;;;;;;9.90;99.90;;;8.86;75.35;94112.31;10483358;28;2279;-83
2021/01/29 11:08:46;;;;;;;;;;;10.00;99.90;;;9.06;74.55;94115.63;10501438;28;2204;-83
2021/01/29 11:13:48;;;;;;;;;;;10.10;99.90;;;9.20;74.09;94105.63;10476556;28;2454;-84
2021/01/29 11:18:49;;;;;;;;;;;10.20;99.90;;;9.13;73.78;94129.41;10467873;28;2242;-83
2021/01/29 11:23:51;;;;;;;;;;;10.30;99.90;;;9.26;73.59;94117.03;10472176;28;2265;-83
2021/01/29 11:28:53;;;;;;;;;;;10.30;99.90;;;9.42;73.00;94131.66;10470126;28;2329;-83
2021/01/29 11:33:55;;;;;;;;;;;10.40;99.90;;;9.32;72.10;94134.56;10452074;28;2410;-85
2021/01/29 11:38:57;;;;;;;;;;;10.50;99.90;;;9.43;71.99;94111.78;10475739;28;2152;-82
2021/01/29 11:43:59;;;;;;;;;;;10.50;99.90;;;9.48;71.07;94117.03;10487593;28;1966;-84
2021/01/29 11:49:03;;;;;;;;;;;10.50;99.90;;;9.73;69.42;94135.16;10449455;28;2243;-81
2021/01/29 11:54:05;;;;;;;;;;;10.70;99.90;;;9.78;68.64;94120.00;10460471;28;2398;-83
2021/01/29 11:59:07;;;;;;;;;;;10.80;99.90;;;9.66;67.78;94118.69;10452946;28;2263;-84
2021/01/29 12:04:09;;;;;;;;;;;10.80;99.90;;;9.60;68.49;94140.59;10444888;28;2443;-84
2021/01/29 12:09:10;;;;;;;;;;;10.60;99.90;;;9.41;69.14;94135.41;10466841;28;2214;-84
2021/01/29 12:14:12;;;;;;;;;;;10.60;99.90;;;9.62;68.54;94131.16;10472196;28;2346;-84
2021/01/29 12:19:14;;;;;;;;;;;10.60;99.90;;;9.56;70.07;94124.31;10445360;28;2477;-84
2021/01/29 12:24:16;;;;;;;;;;;10.70;99.90;;;9.53;69.27;94124.91;10457802;28;2282;-84
2021/01/29 12:29:18;;;;;;;;;;;10.60;99.90;;;9.56;69.14;94124.31;10458244;28;2291;-85
2021/01/29 12:34:19;;;;;;;;;;;10.60;99.90;;;9.49;67.26;94134.69;10478275;28;2184;-84
2021/01/29 12:39:21;;;;;;;;;;;10.50;99.90;;;9.35;67.79;94134.78;10476226;28;2243;-84
2021/01/29 12:44:23;;;;;;;;;;;10.40;99.90;;;9.44;67.13;94127.56;10487025;28;2358;-85
2021/01/29 12:49:25;;;;;;;;;;;10.40;99.90;;;9.59;66.14;94123.69;10488758;28;2401;-82
2021/01/29 12:54:27;;;;;;;;;;;10.60;99.90;;;9.60;65.90;94117.22;10486746;28;1993;-83
2021/01/29 12:59:29;;;;;;;;;;;10.70;99.90;;;9.98;62.58;94092.63;10491848;28;2423;-81
2021/01/29 13:04:33;;;;;;;;;;;10.90;98.50;;;9.71;61.76;94094.41;10464720;28;2270;-83
2021/01/29 13:09:34;;;;;;;;;;;10.90;95.40;;;9.46;63.45;94070.94;10455238;28;2219;-84
2021/01/29 13:14:36;;;;;;;;;;;10.70;97.00;;;9.27;64.04;94067.66;10465752;28;2350;-84
2021/01/29 13:19:42;;;;;;;;;;;10.40;97.00;;;9.33;64.00;94059.19;10444823;28;2326;-84
2021/01/29 13:24:45;;;;;;;;;;;10.40;96.70;;;9.39;63.66;94081.31;10473502;28;2220;-84
2021/01/29 13:29:51;;;;;;;;;;;10.40;96.50;;;9.63;62.68;94078.28;10487538;28;2273;-85
2021/01/29 13:34:58;;;;;;;;;;;10.50;95.70;;;9.96;62.38;94089.47;10497300;28;2377;-85
2021/01/29 13:40:00;;;;;;;;;;;10.80;95.50;;;10.12;62.40;94087.97;10490403;28;2391;-84
2021/01/29 13:45:03;;;;;;;;;;;11.00;95.00;;;9.89;62.78;94099.84;10461467;28;1929;-84
2021/01/29 13:50:14;;;;;;;;;;;11.00;94.70;;;9.16;65.83;94100.09;10494599;28;2397;-86
2021/01/29 13:55:33;;;;;;;;;;;10.60;96.30;;;8.77;68.33;94102.63;10471946;28;2243;-87
2021/01/29 14:01:06;;;;;;;;;;;10.10;99.10;;;8.29;74.09;94114.59;10448886;28;2345;-85
2021/01/29 14:06:08;;;;;;;;;;;9.70;99.90;;;7.78;78.67;94126.28;10466934;28;2074;-85
2021/01/29 14:11:12;;;;;;;;;;;9.20;99.90;;;7.44;82.24;94160.56;10481559;28;2303;-87
2021/01/29 14:16:23;;;;;;;;;;;8.70;99.90;;;7.34;83.19;94144.72;10477746;28;2315;-85
2021/01/29 14:21:25;;;;;;;;;;;8.50;99.90;;;7.15;85.07;94139.41;10463630;28;2304;-86
2021/01/29 14:26:28;;;;;;;;;;;9.50;99.90;;;7.26;83.49;94146.19;10461394;28;2315;-85
2021/01/29 14:31:45;;;;;;;;;;;8.20;99.90;;;7.22;82.83;94127.25;10477639;28;2290;-87
2021/01/29 14:36:51;;;;;;;;;;;9.50;99.90;;;7.19;83.05;94140.41;10480752;28;2020;-86
2021/01/29 14:41:58;;;;;;;;;;;8.30;99.90;;;7.22;80.48;94129.94;10491718;28;1909;-86
2021/01/29 14:47:04;;;;;;;;;;;8.90;99.90;;;7.22;80.53;94129.13;10492409;28;2239;-89
2021/01/29 14:52:06;;;;;;;;;;;8.30;99.90;;;6.95;79.56;94135.97;10495383;28;2334;-85
2021/01/29 14:57:09;;;;;;;;;;;8.10;99.90;;;6.68;79.51;94160.66;10497504;28;2466;-85
2021/01/29 15:02:14;;;;;;;;;;;7.90;99.90;;;6.43;80.16;94151.13;10462106;28;2438;-85
2021/01/29 15:07:20;;;;;;;;;;;7.60;99.90;;;6.37;79.32;94162.16;10484056;28;2144;-85
2021/01/29 15:12:35;;;;;;;;;;;7.40;99.90;;;6.25;79.25;94153.75;10443506;28;2362;-86
2021/01/29 15:18:02;;;;;;;;;;;8.70;99.90;;;6.16;79.40;94150.91;10460463;28;2378;-85
2021/01/29 15:23:08;;;;;;;;;;;9.60;99.90;;;6.17;79.09;94155.16;10452546;28;2398;-85
2021/01/29 15:28:13;;;;;;;;;;;7.30;99.90;;;6.19;78.21;94150.34;10448665;28;2284;-85
2021/01/29 15:33:15;;;;;;;;;;;7.20;99.90;;;6.15;78.77;94160.78;10466102;28;2326;-86
2021/01/29 15:38:17;;;;;;;;;;;7.30;99.90;;;5.99;80.14;94163.94;10466738;28;2176;-86
2021/01/29 15:43:19;;;;;;;;;;;7.20;99.90;;;5.72;80.86;94145.75;10463104;28;2421;-86
2021/01/29 15:48:22;;;;;;;;;;;6.90;99.90;;;5.59;80.69;94168.56;10464150;28;2345;-84
2021/01/29 15:53:25;;;;;;;;;;;6.80;99.90;;;5.81;80.02;94182.22;10458906;28;2462;-82
2021/01/29 15:58:27;;;;;;;;;;;6.70;99.90;;;5.95;77.79;94183.16;10468672;28;2691;-82
2021/01/29 16:03:28;;;;;;;;;;;7.00;99.90;;;6.17;78.33;94200.50;10481137;28;1961;-81
2021/01/29 16:08:31;;;;;;;;;;;7.10;99.90;;;6.03;78.32;94188.94;10489345;28;1196;-83
2021/01/29 16:13:36;;;;;;;;;;;7.10;99.90;;;6.21;78.02;94185.53;10484210;28;1688;-84
2021/01/29 16:18:39;;;;;;;;;;;7.20;99.90;;;6.14;77.70;94199.22;10459090;28;1244;-81
2021/01/29 16:23:43;;;;;;;;;;;7.40;99.90;;;5.94;80.05;94207.44;10452858;28;1918;-83
2021/01/29 16:28:44;;;;;;;;;;;7.10;99.90;;;6.06;79.13;94204.41;10449304;28;1113;-81
2021/01/29 16:33:46;;;;;;;;;;;7.00;99.90;;;5.90;80.46;94217.84;10466009;28;1556;-83
2021/01/29 16:38:48;;;;;;;;;;;7.00;99.90;;;5.73;79.07;94212.16;10474746;28;1528;-83
2021/01/29 16:43:49;;;;;;;;;;;6.90;99.90;;;5.82;79.28;94210.47;10452217;28;1890;-82
2021/01/29 16:48:51;;;;;;;;;;;6.90;99.90;;;5.73;80.43;94196.16;10477418;28;1602;-83
2021/01/29 16:53:53;;;;;;;;;;;6.80;99.90;;;5.57;79.77;94200.81;10483837;28;1365;-82
2021/01/29 16:58:54;;;;;;;;;;;7.30;99.90;;;5.36;81.04;94202.09;10475965;28;1557;-81
2021/01/29 17:03:56;;;;;;;;;;;7.00;99.90;;;5.31;81.19;94204.78;10461110;28;2036;-81
2021/01/29 17:08:58;;;;;;;;;;;6.50;99.90;;;5.45;81.21;94199.59;10449823;28;1642;-82
2021/01/29 17:13:59;;;;;;;;;;;6.50;99.90;;;5.62;81.16;94197.31;10441143;28;1525;-81
2021/01/29 17:19:05;;;;;;;;;;;6.50;99.90;;;5.81;81.06;94203.53;10456307;28;1230;-82
2021/01/29 17:24:07;;;;;;;;;;;6.70;99.90;;;5.69;80.40;94200.47;10446543;28;1988;-81
2021/01/29 17:29:09;;;;;;;;;;;7.40;99.90;;;5.77;79.11;94205.16;10463423;28;1242;-81
2021/01/29 17:34:12;;;;;;;;;;;6.80;99.90;;;5.87;79.68;94209.63;10455655;28;1527;-82
2021/01/29 17:39:14;;;;;;;;;;;6.90;99.90;;;5.90;78.58;94198.38;10473375;28;1461;-82
2021/01/29 17:44:16;;;;;;;;;;;6.90;99.90;;;5.90;79.10;94201.84;10469206;28;1930;-81
2021/01/29 17:49:17;;;;;;;;;;;6.90;99.90;;;5.99;78.82;94203.94;10468025;28;1383;-80
2021/01/29 17:54:19;;;;;;;;;;;7.00;99.90;;;6.18;78.71;94196.78;10465901;28;1627;-82
2021/01/29 17:59:21;;;;;;;;;;;7.10;99.90;;;5.90;79.14;94201.84;10475564;28;2297;-80
2021/01/29 18:04:23;;;;;;;;;;;7.90;99.90;;;5.99;77.90;94202.06;10444870;28;2338;-82
2021/01/29 18:09:26;;;;;;;;;;;7.10;99.90;;;6.08;78.25;94194.22;10464849;28;2313;-82
2021/01/29 18:14:31;;;;;;;;;;;7.50;99.90;;;6.12;78.33;94173.91;10454594;28;2291;-83
2021/01/29 18:19:33;;;;;;;;;;;7.10;99.90;;;6.27;77.05;94181.72;10460670;28;2716;-82
2021/01/29 18:24:35;;;;;;;;;;;7.10;99.90;;;6.12;77.80;94192.59;10453215;28;1933;-81
2021/01/29 18:29:38;;;;;;;;;;;7.10;99.90;;;6.14;77.63;94195.75;10459589;28;1197;-82
2021/01/29 18:34:40;;;;;;;;;;;7.10;99.90;;;6.05;79.10;94190.28;10457624;28;1660;-82
2021/01/29 18:39:42;;;;;;;;;;;7.10;99.90;;;5.94;79.78;94197.56;10478401;28;1952;-82
2021/01/29 18:44:44;;;;;;;;;;;7.10;99.90;;;5.79;81.85;94199.56;10478426;28;1597;-81
2021/01/29 18:49:46;;;;;;;;;;;6.90;99.90;;;5.49;82.56;94197.97;10456841;28;1590;-81
2021/01/29 18:54:49;;;;;;;;;;;6.70;99.90;;;5.52;84.92;94205.41;10466193;28;1248;-83
2021/01/29 18:59:51;;;;;;;;;;;6.60;99.90;;;5.42;85.62;94199.09;10459389;28;1910;-83
2021/01/29 19:04:54;;;;;;;;;;;6.50;99.90;;;5.52;86.15;94198.19;10449218;28;1579;-82
2021/01/29 19:09:55;;;;;;;;;;;6.60;99.90;;;5.62;84.53;94192.00;10465461;28;1629;-83
2021/01/29 19:14:57;;;;;;;;;;;6.60;99.90;;;5.51;85.47;94193.94;10501822;28;1629;-82
2021/01/29 19:19:59;;;;;;;;;;;6.90;99.90;;;5.36;85.10;94196.75;10460052;28;1977;-83
2021/01/29 19:25:04;;;;;;;;;;;6.50;99.90;;;5.37;85.20;94191.13;10458549;28;1636;-82
2021/01/29 19:30:05;;;;;;;;;;;6.50;99.90;;;5.49;84.89;94201.44;10477494;28;1645;-81
2021/01/29 19:35:07;;;;;;;;;;;6.50;99.90;;;5.43;84.08;94207.88;10439945;28;1566;-83
2021/01/29 19:40:09;;;;;;;;;;;7.10;99.90;;;5.53;82.43;94191.78;10469145;28;1906;-83
2021/01/29 19:45:12;;;;;;;;;;;6.80;99.90;;;5.56;83.17;94193.13;10457199;28;1569;-81
2021/01/29 19:50:13;;;;;;;;;;;7.10;99.90;;;5.50;82.26;94184.38;10467187;28;1265;-82
2021/01/29 19:55:15;;;;;;;;;;;6.60;99.90;;;5.44;82.18;94190.81;10456127;28;1870;-83
2021/01/29 20:00:17;;;;;;;;;;;6.60;99.90;;;5.53;82.18;94183.00;10460064;28;1910;-81
2021/01/29 20:05:19;;;;;;;;;;;6.60;99.90;;;5.82;81.65;94183.78;10445521;28;1255;-82
2021/01/29 20:10:21;;;;;;;;;;;6.60;99.90;;;5.64;80.46;94184.50;10464599;28;1665;-83
2021/01/29 20:15:23;;;;;;;;;;;6.90;99.90;;;5.65;80.55;94192.22;10478319;28;1622;-81
2021/01/29 20:20:25;;;;;;;;;;;6.70;99.90;;;5.59;80.25;94203.19;10467507;28;1948;-83
2021/01/29 20:25:28;;;;;;;;;;;6.60;99.90;;;5.58;80.02;94191.75;10464335;28;1557;-81
2021/01/29 20:30:30;;;;;;;;;;;6.70;99.90;;;5.61;79.49;94209.06;10448673;28;1776;-83
2021/01/29 20:35:33;;;;;;;;;;;6.80;99.90;;;5.59;79.15;94217.31;10457624;28;1541;-80
2021/01/29 20:40:35;;;;;;;;;;;6.70;99.90;;;5.68;79.84;94206.88;10482700;28;1953;-81
2021/01/29 20:45:38;;;;;;;;;;;6.90;99.90;;;5.69;79.90;94227.91;10458126;28;1464;-82
2021/01/29 20:50:40;;;;;;;;;;;7.10;99.90;;;5.45;78.87;94224.38;10478858;28;1341;-81
2021/01/29 20:55:43;;;;;;;;;;;7.30;99.90;;;5.41;79.16;94232.16;10446126;28;1629;-81
2021/01/29 21:00:45;;;;;;;;;;;6.50;99.90;;;5.27;79.33;94241.03;10483788;28;1894;-81
2021/01/29 21:05:47;;;;;;;;;;;6.40;99.90;;;5.34;79.42;94262.81;10484266;28;1594;-83
2021/01/29 21:10:49;;;;;;;;;;;6.30;99.90;;;5.36;79.65;94272.16;10480911;28;1577;-81
2021/01/29 21:15:51;;;;;;;;;;;6.30;99.90;;;5.34;79.52;94261.00;10501454;28;1625;-83
2021/01/29 21:20:52;;;;;;;;;;;6.30;99.90;;;4.85;80.04;94272.47;10614233;22;4085;-86
2021/01/29 21:25:54;;;;;;;;;;;6.10;99.90;;;4.61;81.53;94282.16;10506278;28;1460;-85
2021/01/29 21:30:56;;;;;;;;;;;5.90;99.90;;;4.49;81.93;94284.31;10510258;28;1512;-86
2021/01/29 21:35:58;;;;;;;;;;;6.60;99.90;;;4.47;83.06;94289.13;10477466;28;1288;-87
2021/01/29 21:41:03;;;;;;;;;;;5.60;99.90;;;4.46;83.17;94292.84;10481301;28;1914;-87
2021/01/29 21:46:06;;;;;;;;;;;6.50;99.90;;;4.46;83.29;94292.84;10479145;28;1654;-87
2021/01/29 21:51:08;;;;;;;;;;;5.60;99.90;;;4.50;84.11;94285.91;10471105;28;1301;-88
2021/01/29 21:56:10;;;;;;;;;;;5.60;99.90;;;4.28;86.04;94289.72;10467807;28;1619;-86
2021/01/29 22:01:12;;;;;;;;;;;5.90;99.90;;;4.23;87.15;94292.38;10458703;28;1945;-86
2021/01/29 22:06:14;;;;;;;;;;;5.40;99.90;;;4.18;86.81;94299.56;10473328;28;1575;-86
2021/01/29 22:11:20;;;;;;;;;;;5.30;99.90;;;4.16;86.47;94301.69;10486220;28;1374;-85
2021/01/29 22:16:22;;;;;;;;;;;5.30;99.90;;;4.20;85.59;94314.19;10461409;28;1279;-87
2021/01/29 22:21:28;;;;;;;;;;;5.30;99.90;;;4.23;84.55;94308.34;10480760;28;1891;-85
2021/01/29 22:26:30;;;;;;;;;;;5.40;99.90;;;4.21;85.87;94305.16;10471366;28;2497;-86
2021/01/29 22:31:34;;;;;;;;;;;5.50;99.90;;;4.23;85.30;94303.00;10480374;28;2239;-86
2021/01/29 22:36:36;;;;;;;;;;;6.00;99.90;;;4.28;85.49;94304.88;10474245;28;2325;-84
2021/01/29 22:41:38;;;;;;;;;;;5.30;99.90;;;4.31;84.74;94310.44;10489609;28;2186;-86
2021/01/29 22:46:40;;;;;;;;;;;5.40;99.90;;;4.36;85.10;94316.81;10483803;28;2297;-85
2021/01/29 22:51:42;;;;;;;;;;;5.40;99.90;;;4.37;84.05;94305.09;10473827;28;2321;-86
2021/01/29 22:56:44;;;;;;;;;;;5.40;99.90;;;4.38;84.36;94309.34;10489319;28;2245;-84
2021/01/29 23:01:46;;;;;;;;;;;5.50;99.90;;;4.39;84.25;94300.31;10488801;28;2104;-85
2021/01/29 23:06:48;;;;;;;;;;;5.50;99.90;;;4.36;84.53;94292.88;10492201;28;2489;-85
2021/01/29 23:11:50;;;;;;;;;;;6.50;99.90;;;4.37;84.39;94307.75;10481704;28;2297;-87
2021/01/29 23:16:52;;;;;;;;;;;5.40;99.90;;;4.35;84.88;94300.06;10476672;28;2293;-86
2021/01/29 23:21:55;;;;;;;;;;;5.40;99.90;;;4.39;84.70;94295.81;10465575;28;2305;-86
2021/01/29 23:26:57;;;;;;;;;;;5.50;99.90;;;4.41;84.92;94293.66;10464692;28;2221;-86
2021/01/29 23:31:59;;;;;;;;;;;6.10;99.90;;;4.47;84.99;94297.09;10483876;28;2366;-87
2021/01/29 23:37:03;;;;;;;;;;;6.20;99.90;;;4.51;84.33;94282.16;10479675;28;2191;-85
2021/01/29 23:42:06;;;;;;;;;;;5.60;99.90;;;4.65;83.76;94277.09;10490633;28;1887;-84
2021/01/29 23:47:08;;;;;;;;;;;5.60;99.90;;;4.71;83.84;94284.78;10459857;28;2282;-86